Time;durP1;ratioP1;P1;durP2;ratioP2;P2;SDS_P1;SDS_P2;PMS_P1;PMS_P2;Temp;Humidity;BMP_temperature;BMP_pressure;BME280_temperature;BME280_humidity;BME280_pressure;Samples;Min_cycle;Max_cycle;Signal;HPM_P1;HPM_P2
2022/11/30 00:01:08;;;;;;;39.55;16.40;;;;;;;0.12;100.00;99805.06;4289424;33;20034;-70
2022/11/30 00:03:36;;;;;;;42.22;15.90;;;;;;;0.02;100.00;99817.59;4266677;33;20068;-69
2022/11/30 00:06:04;;;;;;;41.83;15.80;;;;;;;0.05;100.00;99807.53;4266648;33;20052;-70
2022/11/30 00:08:31;;;;;;;48.05;16.83;;;;;;;-0.11;100.00;99803.03;4253918;33;20090;-70
2022/11/30 00:10:58;;;;;;;39.67;15.52;;;;;;;-0.13;100.00;99778.50;4250338;33;20041;-70
2022/11/30 00:13:24;;;;;;;38.33;15.70;;;;;;;0.21;100.00;99812.03;4252600;33;20042;-70
2022/11/30 00:15:51;;;;;;;37.83;15.27;;;;;;;0.05;100.00;99817.28;4250295;33;20026;-69
2022/11/30 00:18:17;;;;;;;52.42;15.55;;;;;;;0.09;100.00;99813.31;4219851;33;21106;-70
2022/11/30 00:20:44;;;;;;;44.40;16.27;;;;;;;0.13;100.00;99819.97;4220371;34;20053;-70
2022/11/30 00:23:10;;;;;;;40.63;16.05;;;;;;;0.07;100.00;99810.00;4223646;34;20144;-71
2022/11/30 00:25:38;;;;;;;37.03;16.33;;;;;;;0.10;100.00;99783.22;4207849;34;20039;-70
2022/11/30 00:28:04;;;;;;;41.22;15.45;;;;;;;0.40;100.00;99805.59;4208542;34;20399;-70
2022/11/30 00:30:31;;;;;;;35.15;15.70;;;;;;;-0.12;100.00;99779.34;4208169;34;20413;-71
2022/11/30 00:32:57;;;;;;;35.08;15.40;;;;;;;0.23;100.00;99817.97;4210077;34;20130;-70
2022/11/30 00:35:24;;;;;;;37.85;17.40;;;;;;;-0.02;100.00;99791.47;4220937;34;20035;-70
2022/11/30 00:37:50;;;;;;;36.60;15.82;;;;;;;-0.15;100.00;99809.63;4222690;34;20027;-70
2022/11/30 00:40:17;;;;;;;34.88;19.25;;;;;;;0.12;100.00;99821.75;4244793;33;20046;-71
2022/11/30 00:42:43;;;;;;;39.25;18.48;;;;;;;-0.59;100.00;99817.72;4252340;33;20027;-70
2022/11/30 00:45:10;;;;;;;39.28;16.77;;;;;;;-0.58;100.00;99816.72;4229799;33;20113;-69
2022/11/30 00:47:36;;;;;;;47.80;18.58;;;;;;;-0.84;100.00;99785.84;4228885;33;20518;-70
2022/11/30 00:50:06;;;;;;;43.05;17.62;;;;;;;-0.77;100.00;99828.38;4231603;33;20037;-69
2022/11/30 00:52:32;;;;;;;37.90;15.95;;;;;;;-0.72;100.00;99794.34;4231098;33;20053;-70
2022/11/30 00:54:59;;;;;;;46.92;18.08;;;;;;;-0.13;100.00;99820.88;4228969;33;20139;-70
2022/11/30 00:57:25;;;;;;;42.28;17.35;;;;;;;0.01;100.00;99821.25;4232697;33;20034;-70
2022/11/30 00:59:52;;;;;;;42.00;18.80;;;;;;;0.12;100.00;99826.25;4244077;33;20035;-70
2022/11/30 03:00:24;;;;;;;41.80;15.80;;;;;;;-0.13;100.00;99857.94;4957070;27;20068;-70
2022/11/30 03:02:50;;;;;;;55.78;16.58;;;;;;;-0.78;100.00;99861.94;4288653;33;20052;-70
2022/11/30 03:05:17;;;;;;;41.65;14.55;;;;;;;-0.69;100.00;99851.38;4297254;33;20049;-71
2022/11/30 03:07:43;;;;;;;38.90;15.50;;;;;;;-0.47;100.00;99855.31;4282203;33;20046;-70
2022/11/30 03:10:10;;;;;;;41.00;13.45;;;;;;;-0.82;100.00;99857.09;4297915;33;20919;-70
2022/11/30 03:12:43;;;;;;;40.45;14.63;;;;;;;-0.75;100.00;99837.81;4298368;33;20037;-70
2022/11/30 03:15:10;;;;;;;39.83;14.15;;;;;;;-0.74;100.00;99873.84;4288390;33;20424;-70
2022/11/30 03:17:36;;;;;;;33.83;13.38;;;;;;;-0.84;100.00;99869.66;4280743;33;20055;-68
2022/11/30 03:20:03;;;;;;;66.15;18.60;;;;;;;-0.71;100.00;99867.41;4283425;33;20049;-69
2022/11/30 03:22:30;;;;;;;39.83;15.45;;;;;;;-1.30;100.00;99875.09;4282805;33;20067;-71
2022/11/30 03:24:57;;;;;;;37.13;14.87;;;;;;;-0.70;100.00;99881.47;4284313;33;20106;-71
2022/11/30 03:27:23;;;;;;;62.60;17.55;;;;;;;-0.91;100.00;99842.97;4298059;33;20037;-71
2022/11/30 03:29:49;;;;;;;47.53;15.57;;;;;;;-0.81;100.00;99875.47;4296804;33;20063;-70
2022/11/30 03:32:17;;;;;;;42.80;15.20;;;;;;;-0.48;100.00;99880.97;4284084;33;20049;-71
2022/11/30 03:34:43;;;;;;;46.22;16.25;;;;;;;-0.93;100.00;99837.03;4308728;33;20401;-72
2022/11/30 03:37:10;;;;;;;45.45;15.25;;;;;;;-0.82;100.00;99867.69;4310347;33;20449;-71
2022/11/30 03:39:36;;;;;;;47.35;15.43;;;;;;;-0.59;100.00;99878.56;4310979;33;20067;-72
2022/11/30 03:42:03;;;;;;;34.67;13.93;;;;;;;-0.28;100.00;99880.72;4303223;33;20037;-69
2022/11/30 03:44:29;;;;;;;33.75;15.30;;;;;;;-0.55;100.00;99874.62;4296417;33;20707;-71
2022/11/30 03:46:56;;;;;;;44.15;15.30;;;;;;;-0.56;100.00;99883.53;4284076;33;20488;-71
2022/11/30 03:49:22;;;;;;;39.47;15.00;;;;;;;-0.45;100.00;99883.25;4283505;33;20026;-70
2022/11/30 03:51:49;;;;;;;46.75;16.40;;;;;;;-0.51;100.00;99875.12;4281783;33;20041;-71
2022/11/30 03:54:15;;;;;;;48.53;16.45;;;;;;;-0.48;100.00;99885.41;4292281;33;20040;-70
2022/11/30 03:56:42;;;;;;;43.78;15.10;;;;;;;-1.00;100.00;99887.06;4295531;33;20049;-70
2022/11/30 03:59:08;;;;;;;75.18;21.08;;;;;;;-0.89;100.00;99851.59;4274864;33;20075;-69
2022/11/30 04:01:35;;;;;;;68.90;18.02;;;;;;;-1.05;100.00;99888.47;4251701;33;20135;-71
2022/11/30 04:04:02;;;;;;;56.72;18.85;;;;;;;-0.94;100.00;99890.91;4264075;33;20034;-69
2022/11/30 04:06:28;;;;;;;41.80;16.37;;;;;;;-0.95;100.00;99878.66;4236593;33;20097;-71
2022/11/30 04:08:54;;;;;;;52.00;16.60;;;;;;;-0.59;100.00;99886.50;4239583;33;20069;-71
2022/11/30 04:11:21;;;;;;;44.33;15.40;;;;;;;-0.81;100.00;99854.31;4235064;33;20380;-71
2022/11/30 04:13:47;;;;;;;63.72;15.82;;;;;;;-0.53;100.00;99883.22;4238167;33;20103;-70
2022/11/30 04:16:14;;;;;;;45.72;16.33;;;;;;;-0.93;100.00;99844.97;4228307;33;20087;-70
2022/11/30 04:18:40;;;;;;;46.83;15.88;;;;;;;-0.58;100.00;99896.09;4223200;34;20042;-70
2022/11/30 04:21:07;;;;;;;44.00;15.80;;;;;;;-0.75;100.00;99872.19;4210901;34;20060;-71
2022/11/30 04:23:36;;;;;;;57.90;18.05;;;;;;;-0.55;100.00;99890.50;4211118;34;20031;-70
2022/11/30 04:26:10;;;;;;;40.10;14.32;;;;;;;-0.41;100.00;99892.56;4220412;34;20050;-70
2022/11/30 04:28:36;;;;;;;37.95;15.43;;;;;;;-0.56;100.00;99888.81;4195421;34;20031;-70
2022/11/30 04:31:03;;;;;;;49.45;18.25;;;;;;;-0.49;100.00;99894.34;4196706;34;20101;-71
2022/11/30 04:33:30;;;;;;;50.05;15.70;;;;;;;-0.62;100.00;99900.06;4197152;34;20067;-70
2022/11/30 04:36:00;;;;;;;44.45;15.20;;;;;;;-0.69;100.00;99888.41;4197273;34;20048;-70
2022/11/30 04:38:28;;;;;;;35.50;15.07;;;;;;;-0.26;100.00;99873.44;4228633;33;20057;-70
2022/11/30 04:40:55;;;;;;;41.20;17.27;;;;;;;-0.51;100.00;99886.56;4234394;33;20064;-70
2022/11/30 04:43:22;;;;;;;41.35;17.35;;;;;;;-0.45;100.00;99891.19;4238278;33;20369;-70
2022/11/30 04:45:49;;;;;;;43.85;17.42;;;;;;;-0.45;100.00;99896.50;4238509;33;20042;-69
2022/11/30 04:48:17;;;;;;;48.50;17.55;;;;;;;-0.33;100.00;99880.38;4238026;33;20026;-70
2022/11/30 04:50:43;;;;;;;44.03;19.02;;;;;;;-0.55;100.00;99864.03;4233557;33;20457;-69
2022/11/30 04:53:10;;;;;;;37.55;15.07;;;;;;;-0.63;100.00;99856.06;4248717;33;20034;-70
2022/11/30 04:55:37;;;;;;;39.10;15.88;;;;;;;-0.43;100.00;99893.69;4252154;33;20062;-70
2022/11/30 04:58:04;;;;;;;31.90;14.57;;;;;;;-0.60;100.00;99871.63;4252031;33;20066;-70
2022/11/30 05:00:31;;;;;;;39.25;16.27;;;;;;;-0.51;100.00;99902.44;4252731;33;20037;-69
2022/11/30 05:02:57;;;;;;;42.28;15.63;;;;;;;-0.78;100.00;99898.94;4264128;33;20161;-69
2022/11/30 05:05:24;;;;;;;35.22;14.52;;;;;;;-1.07;100.00;99877.25;4250280;33;20858;-70
2022/11/30 05:07:56;;;;;;;38.05;15.10;;;;;;;-0.85;100.00;99897.88;4237795;33;20030;-71
2022/11/30 05:10:23;;;;;;;35.42;15.02;;;;;;;-0.49;100.00;99900.44;4238060;33;20436;-69
2022/11/30 05:12:49;;;;;;;41.50;15.60;;;;;;;-0.73;100.00;99867.56;4237159;33;20158;-69
2022/11/30 05:15:16;;;;;;;44.25;19.17;;;;;;;-0.72;100.00;99905.41;4236795;33;20449;-70
2022/11/30 05:17:43;;;;;;;29.33;12.85;;;;;;;-0.95;100.00;99905.09;4247405;33;20042;-70
2022/11/30 05:20:09;;;;;;;33.72;13.55;;;;;;;-0.57;100.00;99909.16;4252368;33;20042;-70
2022/11/30 05:22:36;;;;;;;40.28;16.27;;;;;;;-1.05;100.00;99869.97;4251952;33;20185;-70
2022/11/30 05:25:03;;;;;;;37.70;18.90;;;;;;;-1.03;100.00;99894.47;4249948;33;20089;-68
2022/11/30 05:27:29;;;;;;;26.60;11.73;;;;;;;-1.22;100.00;99909.50;4244828;33;20054;-69
2022/11/30 05:29:56;;;;;;;34.00;15.77;;;;;;;-0.75;100.00;99911.00;4232667;33;20177;-70
2022/11/30 05:32:22;;;;;;;40.28;15.00;;;;;;;-1.06;100.00;99870.97;4236102;33;20034;-69
2022/11/30 05:34:49;;;;;;;35.28;15.07;;;;;;;-1.04;100.00;99874.28;4237643;33;20038;-70
2022/11/30 05:37:15;;;;;;;32.33;14.27;;;;;;;-0.92;100.00;99904.78;4247036;33;20041;-69
2022/11/30 05:39:41;;;;;;;35.08;15.50;;;;;;;-0.92;100.00;99910.91;4237545;33;20072;-70
2022/11/30 05:42:08;;;;;;;32.05;13.23;;;;;;;-0.93;100.00;99908.41;4237438;33;20200;-70
2022/11/30 05:44:34;;;;;;;28.83;11.35;;;;;;;-0.88;100.00;99914.06;4231233;33;20084;-70
2022/11/30 05:47:00;;;;;;;35.60;13.95;;;;;;;-0.58;100.00;99912.78;4235650;33;20035;-69
2022/11/30 05:49:27;;;;;;;33.60;13.40;;;;;;;-0.74;100.00;99871.19;4237387;33;20129;-70
2022/11/30 05:51:53;;;;;;;33.40;13.80;;;;;;;-0.40;100.00;99912.75;4236650;33;20042;-70
2022/11/30 05:54:20;;;;;;;27.60;13.62;;;;;;;-0.58;100.00;99925.19;4226687;33;20060;-70
2022/11/30 05:56:46;;;;;;;33.75;14.45;;;;;;;-0.68;100.00;99912.06;4225667;33;20373;-70
2022/11/30 05:59:13;;;;;;;29.77;14.30;;;;;;;-0.69;100.00;99883.12;4225703;34;20411;-69
2022/11/30 06:01:39;;;;;;;32.05;16.15;;;;;;;-0.54;100.00;99918.63;4244162;33;20049;-69
2022/11/30 06:04:06;;;;;;;36.55;16.35;;;;;;;-0.85;100.00;99920.88;4254743;33;20081;-71
2022/11/30 06:06:32;;;;;;;34.08;16.05;;;;;;;-0.64;100.00;99925.81;4254329;33;20064;-70
2022/11/30 06:08:58;;;;;;;29.23;13.55;;;;;;;-1.12;100.00;99936.69;4254437;33;20103;-70
2022/11/30 06:11:25;;;;;;;27.48;12.63;;;;;;;-0.97;100.00;99929.03;4260274;33;20055;-69
2022/11/30 06:13:51;;;;;;;25.45;11.57;;;;;;;-0.63;100.00;99941.53;4268842;33;20061;-70
2022/11/30 06:16:18;;;;;;;26.42;13.30;;;;;;;-0.38;100.00;99936.41;4285893;33;20073;-70
2022/11/30 06:18:44;;;;;;;31.80;13.23;;;;;;;-0.70;100.00;99944.94;4299562;33;20168;-70
2022/11/30 06:21:11;;;;;;;28.90;13.27;;;;;;;-0.35;100.00;99938.75;4293004;33;20037;-70
2022/11/30 06:23:37;;;;;;;32.00;14.32;;;;;;;-0.34;100.00;99944.84;4283416;33;20450;-69
2022/11/30 06:26:06;;;;;;;33.25;18.02;;;;;;;-0.54;100.00;99945.06;4246536;33;20557;-70
2022/11/30 06:28:33;;;;;;;27.67;13.95;;;;;;;-0.90;100.00;99939.84;4249128;33;20093;-70
2022/11/30 06:31:00;;;;;;;36.28;15.55;;;;;;;-0.78;100.00;99938.63;4254103;33;20026;-70
2022/11/30 06:33:27;;;;;;;24.17;10.73;;;;;;;-1.18;100.00;99942.59;4239416;33;20038;-72
2022/11/30 06:35:54;;;;;;;29.17;13.88;;;;;;;-0.56;100.00;99947.87;4238829;33;20020;-74
2022/11/30 06:38:21;;;;;;;23.90;12.52;;;;;;;-0.55;100.00;99951.34;4224677;34;20069;-73
2022/11/30 06:40:47;;;;;;;24.90;14.82;;;;;;;-0.59;100.00;99945.53;4210268;34;20042;-73
2022/11/30 06:43:14;;;;;;;19.75;10.13;;;;;;;-0.98;100.00;99959.09;4211111;34;20084;-74
2022/11/30 06:45:44;;;;;;;32.40;15.38;;;;;;;-1.36;100.00;99939.09;4211188;34;20061;-73
2022/11/30 06:48:11;;;;;;;30.95;12.20;;;;;;;-1.12;100.00;99964.91;4205277;34;20087;-74
2022/11/30 06:50:37;;;;;;;27.75;14.10;;;;;;;-0.84;100.00;99959.56;4209837;34;20369;-74
2022/11/30 06:53:04;;;;;;;34.78;12.63;;;;;;;-0.94;100.00;99959.66;4208964;34;20080;-74
2022/11/30 06:55:34;;;;;;;26.67;12.95;;;;;;;-0.85;100.00;99956.06;4202996;34;20044;-74
2022/11/30 06:58:08;;;;;;;27.58;12.88;;;;;;;-0.96;100.00;99924.59;4244993;33;20054;-75
2022/11/30 07:00:35;;;;;;;28.27;12.55;;;;;;;-0.50;100.00;99957.00;4253722;33;20046;-75
2022/11/30 07:03:03;;;;;;;26.48;11.90;;;;;;;-0.57;100.00;99966.53;4265213;33;20083;-75
2022/11/30 07:05:33;;;;;;;35.15;13.57;;;;;;;-0.74;100.00;99933.84;4252948;33;20053;-74
2022/11/30 07:08:00;;;;;;;30.92;14.10;;;;;;;-0.38;100.00;99970.81;4252211;33;20091;-74
2022/11/30 07:10:26;;;;;;;32.28;15.70;;;;;;;-0.71;100.00;99959.16;4264996;33;20059;-74
2022/11/30 07:12:53;;;;;;;26.15;12.70;;;;;;;-0.51;100.00;99975.66;4282257;33;20044;-74
2022/11/30 07:15:19;;;;;;;33.95;14.90;;;;;;;-0.35;100.00;99980.25;4292089;33;20041;-75
2022/11/30 07:17:46;;;;;;;29.23;15.25;;;;;;;-0.50;100.00;99978.16;4294586;33;20054;-74
2022/11/30 07:20:12;;;;;;;29.50;13.62;;;;;;;-0.49;100.00;99974.53;4298986;33;20082;-74
2022/11/30 07:22:39;;;;;;;30.98;14.45;;;;;;;-0.28;100.00;99981.28;4299728;33;20041;-74
2022/11/30 07:27:51;;;;;;;31.33;16.10;;;;;;;-0.42;100.00;99986.16;4298514;33;20071;-72
2022/11/30 07:30:17;;;;;;;35.65;13.73;;;;;;;-0.39;100.00;99985.03;4297409;33;20049;-72
2022/11/30 07:32:44;;;;;;;32.28;16.80;;;;;;;-0.55;100.00;99930.19;4297724;33;20061;-73
2022/11/30 07:35:10;;;;;;;32.45;14.95;;;;;;;-0.26;100.00;99979.31;4298490;33;20466;-72
2022/11/30 07:37:37;;;;;;;38.83;16.67;;;;;;;0.06;100.00;99991.06;4281361;33;20049;-73
2022/11/30 07:40:04;;;;;;;33.20;14.73;;;;;;;-0.02;100.00;99992.69;4281021;33;20033;-74
2022/11/30 07:42:31;;;;;;;31.65;16.70;;;;;;;0.06;100.00;99997.19;4281481;33;20057;-71
2022/11/30 07:44:57;;;;;;;31.33;15.30;;;;;;;-0.45;100.00;99988.28;4281836;33;20461;-73
2022/11/30 07:47:24;;;;;;;27.87;13.77;;;;;;;-0.17;100.00;99988.16;4280807;33;20069;-73
2022/11/30 07:49:50;;;;;;;29.77;15.10;;;;;;;-0.31;100.00;99955.13;4280731;33;20033;-72
2022/11/30 07:52:17;;;;;;;32.60;13.30;;;;;;;-0.14;100.00;99993.94;4281189;33;20063;-72
2022/11/30 07:54:43;;;;;;;30.88;14.43;;;;;;;-0.22;100.00;99991.25;4254128;33;20052;-73
2022/11/30 07:57:10;;;;;;;23.83;11.48;;;;;;;-0.21;100.00;99967.28;4257452;33;20101;-73
2022/11/30 07:59:36;;;;;;;32.88;12.98;;;;;;;-0.06;100.00;99980.75;4223743;34;20038;-75
2022/11/30 08:02:02;;;;;;;24.30;12.65;;;;;;;-0.04;100.00;99970.81;4235877;33;20046;-73
2022/11/30 08:04:29;;;;;;;28.95;15.07;;;;;;;-0.21;100.00;99966.44;4237102;33;20038;-72
2022/11/30 08:07:02;;;;;;;27.58;13.02;;;;;;;-0.54;100.00;99982.12;4238684;33;20065;-73
2022/11/30 08:09:29;;;;;;;31.65;14.02;;;;;;;-0.50;100.00;99941.13;4239340;33;20425;-73
2022/11/30 08:11:55;;;;;;;31.98;15.18;;;;;;;-0.68;100.00;99943.00;4223377;33;20050;-73
2022/11/30 08:14:21;;;;;;;34.70;15.68;;;;;;;-1.08;100.00;99946.97;4224916;33;20051;-73
2022/11/30 08:16:48;;;;;;;29.70;15.00;;;;;;;-0.62;100.00;99985.53;4224953;34;20047;-72
2022/11/30 08:19:14;;;;;;;28.27;14.00;;;;;;;-0.82;100.00;99966.34;4223977;33;20039;-73
2022/11/30 08:21:41;;;;;;;26.87;13.15;;;;;;;-0.64;100.00;99965.47;4224999;34;20060;-73
2022/11/30 08:24:10;;;;;;;31.52;13.50;;;;;;;-0.51;100.00;99955.34;4210927;34;20035;-73
2022/11/30 08:26:37;;;;;;;33.95;13.13;;;;;;;-0.19;100.00;99990.94;4210702;34;20217;-73
2022/11/30 08:29:03;;;;;;;26.08;14.30;;;;;;;-0.12;100.00;99996.44;4211191;34;20499;-73
2022/11/30 08:31:32;;;;;;;30.98;13.93;;;;;;;-0.19;100.00;100001.53;4206442;34;20460;-73
2022/11/30 08:34:02;;;;;;;33.22;14.70;;;;;;;-0.59;100.00;99968.50;4199175;34;20085;-73
2022/11/30 08:36:30;;;;;;;33.53;13.27;;;;;;;-0.20;100.00;100002.50;4214969;33;20466;-72
2022/11/30 08:38:57;;;;;;;18.40;10.15;;;;;;;-0.13;100.00;99995.59;4238988;33;20195;-72
2022/11/30 08:41:25;;;;;;;28.65;14.23;;;;;;;-0.14;100.00;99988.66;4238947;33;20434;-73
2022/11/30 08:43:52;;;;;;;34.25;16.40;;;;;;;-0.26;100.00;99952.84;4237364;33;20076;-73
2022/11/30 08:46:21;;;;;;;27.33;13.93;;;;;;;-0.03;100.00;99995.50;4236574;33;20090;-73
2022/11/30 08:48:49;;;;;;;26.10;13.88;;;;;;;0.10;100.00;100001.19;4237518;33;20047;-72
2022/11/30 08:51:17;;;;;;;29.55;13.80;;;;;;;-0.15;100.00;99960.50;4223591;33;20174;-73
2022/11/30 08:53:44;;;;;;;39.20;13.95;;;;;;;0.10;100.00;99955.34;4224741;34;20448;-73
2022/11/30 08:56:14;;;;;;;23.65;11.93;;;;;;;-0.14;100.00;99930.41;4221163;34;20054;-73
2022/11/30 08:58:41;;;;;;;25.25;13.60;;;;;;;0.05;100.00;99984.94;4224874;34;20039;-73
2022/11/30 09:01:24;;;;;;;24.33;14.18;;;;;;;0.05;100.00;99976.16;4226870;33;20089;-73
2022/11/30 09:03:53;;;;;;;29.67;14.13;;;;;;;0.17;100.00;99991.59;4236608;33;20065;-73
2022/11/30 09:06:29;;;;;;;27.00;13.10;;;;;;;-0.07;100.00;99957.91;4235809;33;20057;-69
2022/11/30 09:08:58;;;;;;;31.20;13.25;;;;;;;0.18;100.00;99965.97;4238057;33;20412;-70
2022/11/30 09:11:27;;;;;;;29.48;13.30;;;;;;;0.26;100.00;99973.94;4236378;33;20055;-70
2022/11/30 09:13:55;;;;;;;28.48;13.07;;;;;;;0.30;100.00;100001.78;4236546;33;20062;-69
2022/11/30 09:16:24;;;;;;;24.05;10.68;;;;;;;-0.20;100.00;99957.50;4236451;33;20031;-69
2022/11/30 09:18:51;;;;;;;19.83;10.45;;;;;;;0.20;100.00;99997.59;4246542;33;20046;-69
2022/11/30 09:21:20;;;;;;;21.80;11.52;;;;;;;0.09;100.00;99998.69;4258058;33;20470;-70
2022/11/30 09:23:48;;;;;;;19.42;9.80;;;;;;;0.07;100.00;99996.22;4265937;33;20063;-69
2022/11/30 09:26:18;;;;;;;24.02;11.35;;;;;;;-0.09;100.00;99999.59;4265657;33;20029;-69
2022/11/30 09:28:46;;;;;;;22.35;10.70;;;;;;;-0.18;100.00;99997.88;4260284;33;20055;-69
2022/11/30 09:31:21;;;;;;;25.33;11.57;;;;;;;-0.32;100.00;99979.94;4235524;33;20078;-69
2022/11/30 09:33:49;;;;;;;25.17;10.82;;;;;;;-0.06;100.00;99998.47;4235544;33;20093;-69
2022/11/30 09:36:18;;;;;;;23.25;12.57;;;;;;;-0.50;100.00;99993.22;4236599;33;20212;-69
2022/11/30 09:38:45;;;;;;;24.83;11.90;;;;;;;-0.75;100.00;99962.13;4244497;33;20038;-69
2022/11/30 09:41:27;;;;;;;21.17;10.95;;;;;;;-0.68;100.00;99991.41;4243334;33;20500;-69
2022/11/30 09:44:02;;;;;;;20.58;10.68;;;;;;;-0.45;100.00;99970.56;4248081;33;20433;-68
2022/11/30 09:46:40;;;;;;;22.23;11.88;;;;;;;-0.06;100.00;99999.28;4245781;33;20053;-69
2022/11/30 09:49:17;;;;;;;25.65;12.85;;;;;;;0.15;100.00;100013.97;4238582;33;20038;-70
2022/11/30 09:51:47;;;;;;;22.95;11.20;;;;;;;0.20;100.00;100005.53;4238506;33;20566;-70
2022/11/30 09:54:17;;;;;;;21.77;11.55;;;;;;;0.44;100.00;99995.03;4238139;33;20038;-71
2022/11/30 09:56:45;;;;;;;32.85;10.50;;;;;;;0.52;100.00;99965.09;4238073;33;20055;-70
2022/11/30 09:59:19;;;;;;;26.12;12.88;;;;;;;0.50;100.00;99998.88;4236786;33;20431;-70
2022/11/30 10:01:47;;;;;;;22.50;10.60;;;;;;;0.59;100.00;99997.06;4236341;33;20076;-70
2022/11/30 10:04:22;;;;;;;21.52;10.93;;;;;;;-0.02;100.00;100013.03;4245318;33;20030;-70
2022/11/30 10:06:56;;;;;;;20.95;11.50;;;;;;;0.41;100.00;100002.47;4262362;33;20096;-70
2022/11/30 10:09:38;;;;;;;21.50;11.95;;;;;;;0.31;100.00;100002.63;4254948;33;20057;-70
2022/11/30 10:12:14;;;;;;;17.62;9.70;;;;;;;0.09;100.00;100004.00;4263171;33;20059;-70
2022/11/30 10:15:07;;;;;;;24.73;12.43;;;;;;;0.33;100.00;100006.75;4266034;33;20037;-70
2022/11/30 10:17:37;;;;;;;24.35;12.73;;;;;;;0.08;100.00;100007.63;4267233;33;20050;-70
2022/11/30 10:20:23;;;;;;;22.23;11.20;;;;;;;-0.63;100.00;99972.44;4279716;33;20042;-70
2022/11/30 10:22:53;;;;;;;23.52;14.48;;;;;;;-0.62;100.00;100001.41;4297961;33;20053;-70
2022/11/30 10:25:56;;;;;;;18.80;10.48;;;;;;;-0.75;100.00;100008.88;4296795;33;20084;-70
2022/11/30 10:28:49;;;;;;;17.27;10.40;;;;;;;-0.20;100.00;100013.09;4223967;34;20529;-70
2022/11/30 10:31:19;;;;;;;25.10;11.45;;;;;;;-0.14;100.00;100009.84;4194047;34;20065;-69
2022/11/30 10:33:50;;;;;;;17.58;9.50;;;;;;;0.04;100.00;100006.28;4181372;34;20082;-69
2022/11/30 10:36:26;;;;;;;17.92;10.07;;;;;;;-0.31;100.00;99955.13;4182384;34;20047;-70
2022/11/30 10:38:59;;;;;;;20.25;10.20;;;;;;;0.25;100.00;100000.59;4180688;34;20063;-68
2022/11/30 10:41:33;;;;;;;18.12;8.85;;;;;;;0.44;100.00;100005.63;4181300;34;20520;-70
2022/11/30 10:44:19;;;;;;;24.48;11.15;;;;;;;0.39;100.00;99962.06;4161158;34;20227;-70
2022/11/30 10:46:55;;;;;;;18.05;9.68;;;;;;;0.28;100.00;99985.22;4157368;34;20048;-71
2022/11/30 10:49:26;;;;;;;15.70;9.52;;;;;;;0.30;100.00;99980.59;4158421;34;20052;-69
2022/11/30 10:52:00;;;;;;;17.30;9.07;;;;;;;0.26;100.00;100026.94;4169875;34;20435;-68
2022/11/30 10:54:30;;;;;;;16.80;9.00;;;;;;;0.41;100.00;100018.38;4171215;34;20065;-71
2022/11/30 10:57:00;;;;;;;24.63;9.93;;;;;;;0.50;100.00;100006.84;4173797;34;20061;-69
2022/11/30 10:59:38;;;;;;;18.20;9.23;;;;;;;0.47;100.00;100007.16;4184496;34;20036;-69
2022/11/30 11:02:43;;;;;;;15.65;8.82;;;;;;;0.51;100.00;100005.81;4193134;34;20056;-69
2022/11/30 11:05:14;;;;;;;18.20;9.70;;;;;;;0.75;100.00;100004.25;4198542;34;20084;-69
2022/11/30 11:08:01;;;;;;;18.42;9.38;;;;;;;0.44;100.00;99975.66;4212612;34;20259;-69
2022/11/30 11:10:35;;;;;;;18.20;9.18;;;;;;;0.43;100.00;99996.03;4231837;33;20116;-69
2022/11/30 11:13:02;;;;;;;16.25;7.93;;;;;;;0.35;100.00;100004.78;4230165;33;20669;-69
2022/11/30 11:15:33;;;;;;;19.15;9.25;;;;;;;0.29;100.00;100004.59;4268682;33;20099;-69
2022/11/30 11:18:25;;;;;;;20.40;9.10;;;;;;;0.39;100.00;99977.97;4280004;33;20041;-69
2022/11/30 11:21:04;;;;;;;14.80;6.80;;;;;;;0.83;100.00;100002.44;4273370;33;20087;-69
2022/11/30 11:23:35;;;;;;;11.15;7.12;;;;;;;0.65;100.00;99997.25;4278026;33;20067;-69
2022/11/30 11:26:03;;;;;;;15.13;6.33;;;;;;;0.66;100.00;99959.16;4279574;33;20041;-70
2022/11/30 11:28:30;;;;;;;16.05;9.32;;;;;;;0.53;100.00;99990.59;4252304;33;20474;-69
2022/11/30 11:30:58;;;;;;;15.82;9.38;;;;;;;0.51;100.00;99982.81;4245682;33;20054;-69
2022/11/30 11:33:27;;;;;;;12.77;7.45;;;;;;;0.49;100.00;99989.25;4260698;33;20060;-69
2022/11/30 11:36:15;;;;;;;16.70;8.95;;;;;;;0.78;100.00;99957.00;4257665;33;20107;-70
2022/11/30 11:38:45;;;;;;;16.45;8.63;;;;;;;0.84;100.00;99997.97;4260889;33;20037;-70
2022/11/30 11:41:34;;;;;;;15.18;8.38;;;;;;;1.09;100.00;100002.31;4238197;33;20059;-69
2022/11/30 11:44:10;;;;;;;15.65;8.32;;;;;;;0.80;100.00;99972.75;4236831;33;20038;-73
2022/11/30 11:46:58;;;;;;;14.23;8.23;;;;;;;0.64;100.00;100008.88;4236312;33;20566;-73
2022/11/30 11:49:36;;;;;;;14.55;8.68;;;;;;;0.76;100.00;99969.63;4213774;34;20185;-75
2022/11/30 11:52:10;;;;;;;12.48;8.02;;;;;;;0.85;100.00;99989.03;4217195;33;20067;-74
2022/11/30 11:55:16;;;;;;;20.52;10.15;;;;;;;0.49;100.00;99994.56;4215063;33;20046;-74
2022/11/30 11:57:53;;;;;;;15.63;8.85;;;;;;;0.76;100.00;99990.00;4179536;34;20059;-73
2022/11/30 12:03:28;;;;;;;18.65;8.02;;;;;;;0.68;100.00;100015.47;4192243;34;20109;-73
2022/11/30 12:06:01;;;;;;;16.80;8.45;;;;;;;0.47;100.00;100007.16;4181971;34;20135;-74
2022/11/30 12:09:02;;;;;;;16.40;8.80;;;;;;;0.72;100.00;100010.72;4182468;34;20090;-74
2022/11/30 12:11:48;;;;;;;15.02;8.07;;;;;;;0.77;100.00;100004.94;4181967;34;20948;-73
2022/11/30 12:14:17;;;;;;;19.23;9.43;;;;;;;0.80;100.00;100002.78;4182082;34;20060;-73
2022/11/30 12:17:02;;;;;;;18.12;9.65;;;;;;;0.69;100.00;99972.09;4180362;34;20052;-71
2022/11/30 12:19:51;;;;;;;16.62;8.77;;;;;;;0.43;100.00;100003.16;4182199;34;20057;-74
2022/11/30 12:22:47;;;;;;;18.55;9.38;;;;;;;0.97;100.00;99998.31;4195148;34;20074;-73
2022/11/30 12:25:25;;;;;;;14.85;8.57;;;;;;;0.69;100.00;99977.41;4163284;34;20117;-73
2022/11/30 12:28:31;;;;;;;17.08;7.80;;;;;;;1.01;100.00;100017.41;4182899;34;20065;-74
2022/11/30 12:31:16;;;;;;;15.05;8.00;;;;;;;1.00;100.00;99982.06;4199549;34;20050;-73
2022/11/30 12:34:12;;;;;;;17.70;8.98;;;;;;;0.85;100.00;99975.78;4191337;34;20504;-73
2022/11/30 12:36:59;;;;;;;15.00;7.62;;;;;;;1.18;100.00;100000.50;4191490;34;20062;-72
2022/11/30 12:39:44;;;;;;;17.25;8.68;;;;;;;0.84;100.00;100013.87;4208191;34;20038;-73
2022/11/30 12:42:19;;;;;;;11.95;7.03;;;;;;;0.85;100.00;99994.34;4206433;34;20055;-72
2022/11/30 12:45:10;;;;;;;13.82;8.13;;;;;;;1.11;100.00;100022.56;4207675;34;20057;-72
2022/11/30 12:48:17;;;;;;;18.90;8.23;;;;;;;0.42;100.00;100022.72;4200076;34;20051;-72
2022/11/30 12:50:50;;;;;;;17.83;9.38;;;;;;;0.92;100.00;100016.53;4152031;34;20176;-73
2022/11/30 12:53:38;;;;;;;17.30;8.13;;;;;;;0.77;100.00;100015.53;4148783;34;20058;-73
2022/11/30 12:56:49;;;;;;;18.20;10.02;;;;;;;1.24;100.00;100021.06;4143437;34;20460;-73
2022/11/30 12:59:43;;;;;;;16.70;8.30;;;;;;;0.83;100.00;100022.81;4132821;34;20097;-73
2022/11/30 13:02:38;;;;;;;21.33;9.23;;;;;;;1.07;100.00;100020.22;4127671;34;20040;-72
2022/11/30 13:05:14;;;;;;;22.17;8.70;;;;;;;1.25;100.00;100021.91;4132802;34;20074;-72
2022/11/30 13:08:11;;;;;;;20.55;9.95;;;;;;;1.35;100.00;100017.25;4119232;34;20045;-72
2022/11/30 13:10:44;;;;;;;17.80;9.50;;;;;;;1.31;100.00;100015.94;4114063;34;20053;-73
2022/11/30 13:13:15;;;;;;;18.85;10.02;;;;;;;1.13;100.00;100017.91;4121288;34;20041;-72
2022/11/30 13:15:43;;;;;;;20.27;10.13;;;;;;;0.98;100.00;99977.94;4114739;34;20476;-72
2022/11/30 13:18:18;;;;;;;19.27;10.38;;;;;;;0.78;100.00;99993.31;4123427;34;20048;-72
2022/11/30 13:21:07;;;;;;;14.85;7.95;;;;;;;1.27;100.00;100006.66;4126883;34;20071;-74
2022/11/30 13:23:46;;;;;;;15.98;8.05;;;;;;;1.49;100.00;100007.00;4117866;34;20258;-73
2022/11/30 13:26:51;;;;;;;17.58;9.68;;;;;;;1.19;100.00;100002.16;4134549;34;20060;-72
2022/11/30 13:29:48;;;;;;;16.77;8.85;;;;;;;1.45;100.00;99999.34;4165871;34;20489;-73
2022/11/30 13:32:16;;;;;;;17.35;9.35;;;;;;;1.43;100.00;99998.66;4202725;34;20071;-73
2022/11/30 13:34:43;;;;;;;19.23;8.95;;;;;;;1.13;100.00;100002.00;4205582;34;20435;-73